sensor_id;sensor_type;location;lat;lon;timestamp;temperature;humidity
72591;SHT31;60625;51.212;5.952;2023-07-29T00:01:56;19.96;83.47
72591;SHT31;60625;51.212;5.952;2023-07-29T00:06:56;19.95;83.50
72591;SHT31;60625;51.212;5.952;2023-07-29T00:11:57;19.94;83.63
72591;SHT31;60625;51.212;5.952;2023-07-29T00:16:57;19.91;83.82
72591;SHT31;60625;51.212;5.952;2023-07-29T00:21:58;19.88;83.97
72591;SHT31;60625;51.212;5.952;2023-07-29T00:26:58;19.85;84.03
72591;SHT31;60625;51.212;5.952;2023-07-29T00:31:59;19.85;84.06
72591;SHT31;60625;51.212;5.952;2023-07-29T00:36:59;19.86;84.15
72591;SHT31;60625;51.212;5.952;2023-07-29T00:41:59;19.85;84.21
72591;SHT31;60625;51.212;5.952;2023-07-29T00:47:00;19.85;84.20
72591;SHT31;60625;51.212;5.952;2023-07-29T00:52:03;19.84;84.15
72591;SHT31;60625;51.212;5.952;2023-07-29T00:57:05;19.81;84.28
72591;SHT31;60625;51.212;5.952;2023-07-29T01:02:08;19.79;84.46
72591;SHT31;60625;51.212;5.952;2023-07-29T01:12:25;19.77;84.93
72591;SHT31;60625;51.212;5.952;2023-07-29T01:17:30;19.75;85.01
72591;SHT31;60625;51.212;5.952;2023-07-29T01:22:38;19.77;85.04
72591;SHT31;60625;51.212;5.952;2023-07-29T01:27:41;19.78;85.22
72591;SHT31;60625;51.212;5.952;2023-07-29T01:37:55;19.80;85.25
72591;SHT31;60625;51.212;5.952;2023-07-29T01:43:01;19.81;85.29
72591;SHT31;60625;51.212;5.952;2023-07-29T01:48:02;19.82;85.44
72591;SHT31;60625;51.212;5.952;2023-07-29T01:53:04;19.84;85.49
72591;SHT31;60625;51.212;5.952;2023-07-29T01:58:04;19.85;85.47
72591;SHT31;60625;51.212;5.952;2023-07-29T02:03:06;19.85;85.49
72591;SHT31;60625;51.212;5.952;2023-07-29T02:08:06;19.87;85.50
72591;SHT31;60625;51.212;5.952;2023-07-29T02:13:06;19.88;85.64
72591;SHT31;60625;51.212;5.952;2023-07-29T02:18:07;19.88;85.93
72591;SHT31;60625;51.212;5.952;2023-07-29T02:23:08;19.85;86.07
72591;SHT31;60625;51.212;5.952;2023-07-29T02:28:08;19.84;86.22
72591;SHT31;60625;51.212;5.952;2023-07-29T02:33:09;19.82;86.27
72591;SHT31;60625;51.212;5.952;2023-07-29T02:38:09;19.79;85.86
72591;SHT31;60625;51.212;5.952;2023-07-29T02:43:10;19.77;85.43
72591;SHT31;60625;51.212;5.952;2023-07-29T02:48:10;19.73;84.96
72591;SHT31;60625;51.212;5.952;2023-07-29T02:53:11;19.70;84.89
72591;SHT31;60625;51.212;5.952;2023-07-29T02:58:11;19.65;84.82
72591;SHT31;60625;51.212;5.952;2023-07-29T03:03:12;19.59;84.68
72591;SHT31;60625;51.212;5.952;2023-07-29T03:08:13;19.50;84.29
72591;SHT31;60625;51.212;5.952;2023-07-29T03:13:13;19.39;83.89
72591;SHT31;60625;51.212;5.952;2023-07-29T03:18:13;19.30;83.36
72591;SHT31;60625;51.212;5.952;2023-07-29T03:23:15;19.22;83.03
72591;SHT31;60625;51.212;5.952;2023-07-29T03:28:16;19.14;82.71
72591;SHT31;60625;51.212;5.952;2023-07-29T03:33:16;19.06;82.64
72591;SHT31;60625;51.212;5.952;2023-07-29T03:38:17;18.99;82.53
72591;SHT31;60625;51.212;5.952;2023-07-29T03:43:17;18.93;82.48
72591;SHT31;60625;51.212;5.952;2023-07-29T03:48:18;18.87;82.43
72591;SHT31;60625;51.212;5.952;2023-07-29T03:53:19;18.81;82.33
72591;SHT31;60625;51.212;5.952;2023-07-29T03:58:20;18.76;82.24
72591;SHT31;60625;51.212;5.952;2023-07-29T04:03:20;18.68;82.21
72591;SHT31;60625;51.212;5.952;2023-07-29T04:08:21;18.62;82.22
72591;SHT31;60625;51.212;5.952;2023-07-29T04:13:22;18.57;82.17
72591;SHT31;60625;51.212;5.952;2023-07-29T04:18:22;18.54;82.13
72591;SHT31;60625;51.212;5.952;2023-07-29T04:23:23;18.54;82.13
72591;SHT31;60625;51.212;5.952;2023-07-29T04:28:23;18.52;82.15
72591;SHT31;60625;51.212;5.952;2023-07-29T04:33:24;18.50;82.19
72591;SHT31;60625;51.212;5.952;2023-07-29T04:38:27;18.49;82.19
72591;SHT31;60625;51.212;5.952;2023-07-29T04:43:32;18.50;82.28
72591;SHT31;60625;51.212;5.952;2023-07-29T04:48:33;18.48;82.49
72591;SHT31;60625;51.212;5.952;2023-07-29T04:53:34;18.46;82.63
72591;SHT31;60625;51.212;5.952;2023-07-29T04:58:36;18.46;82.70
72591;SHT31;60625;51.212;5.952;2023-07-29T05:03:37;18.45;82.70
72591;SHT31;60625;51.212;5.952;2023-07-29T05:08:39;18.44;82.52
72591;SHT31;60625;51.212;5.952;2023-07-29T05:13:40;18.46;82.38
72591;SHT31;60625;51.212;5.952;2023-07-29T05:18:41;18.46;82.05
72591;SHT31;60625;51.212;5.952;2023-07-29T05:23:42;18.44;81.67
72591;SHT31;60625;51.212;5.952;2023-07-29T05:28:43;18.43;81.59
72591;SHT31;60625;51.212;5.952;2023-07-29T05:33:43;18.43;81.43
72591;SHT31;60625;51.212;5.952;2023-07-29T05:38:44;18.44;81.42
72591;SHT31;60625;51.212;5.952;2023-07-29T05:43:44;18.45;81.42
72591;SHT31;60625;51.212;5.952;2023-07-29T05:48:45;18.46;81.54
72591;SHT31;60625;51.212;5.952;2023-07-29T05:53:46;18.47;81.54
72591;SHT31;60625;51.212;5.952;2023-07-29T05:58:47;18.46;81.46
72591;SHT31;60625;51.212;5.952;2023-07-29T06:03:47;18.46;81.45
72591;SHT31;60625;51.212;5.952;2023-07-29T06:08:48;18.48;81.50
72591;SHT31;60625;51.212;5.952;2023-07-29T06:13:49;18.57;81.24
72591;SHT31;60625;51.212;5.952;2023-07-29T06:18:50;18.66;80.81
72591;SHT31;60625;51.212;5.952;2023-07-29T06:23:54;18.72;80.53
72591;SHT31;60625;51.212;5.952;2023-07-29T06:28:54;18.74;80.04
72591;SHT31;60625;51.212;5.952;2023-07-29T06:33:55;18.81;79.76
72591;SHT31;60625;51.212;5.952;2023-07-29T06:38:55;18.93;79.54
72591;SHT31;60625;51.212;5.952;2023-07-29T06:43:56;19.04;78.88
72591;SHT31;60625;51.212;5.952;2023-07-29T06:48:56;19.03;78.21
72591;SHT31;60625;51.212;5.952;2023-07-29T06:53:57;19.14;78.31
72591;SHT31;60625;51.212;5.952;2023-07-29T06:58:58;19.33;77.46
72591;SHT31;60625;51.212;5.952;2023-07-29T07:03:59;19.42;76.58
72591;SHT31;60625;51.212;5.952;2023-07-29T07:08:59;19.60;76.40
72591;SHT31;60625;51.212;5.952;2023-07-29T07:14:00;19.84;75.36
72591;SHT31;60625;51.212;5.952;2023-07-29T07:19:00;20.09;75.50
72591;SHT31;60625;51.212;5.952;2023-07-29T07:24:01;20.38;75.11
72591;SHT31;60625;51.212;5.952;2023-07-29T07:29:05;20.68;74.32
72591;SHT31;60625;51.212;5.952;2023-07-29T07:34:05;20.92;73.82
72591;SHT31;60625;51.212;5.952;2023-07-29T07:39:06;21.18;72.67
72591;SHT31;60625;51.212;5.952;2023-07-29T07:44:07;21.47;72.11
72591;SHT31;60625;51.212;5.952;2023-07-29T07:49:08;21.74;71.89
72591;SHT31;60625;51.212;5.952;2023-07-29T07:54:09;21.92;71.25
72591;SHT31;60625;51.212;5.952;2023-07-29T07:59:10;22.06;70.76
72591;SHT31;60625;51.212;5.952;2023-07-29T08:04:11;22.27;70.61
72591;SHT31;60625;51.212;5.952;2023-07-29T08:09:11;22.31;70.06
72591;SHT31;60625;51.212;5.952;2023-07-29T08:14:12;22.36;69.82
72591;SHT31;60625;51.212;5.952;2023-07-29T08:19:12;22.51;68.00
72591;SHT31;60625;51.212;5.952;2023-07-29T08:24:13;22.49;67.14
72591;SHT31;60625;51.212;5.952;2023-07-29T08:29:13;22.34;67.32
72591;SHT31;60625;51.212;5.952;2023-07-29T08:34:14;22.28;67.42
72591;SHT31;60625;51.212;5.952;2023-07-29T08:39:14;22.34;67.04
72591;SHT31;60625;51.212;5.952;2023-07-29T08:44:18;22.48;66.89
72591;SHT31;60625;51.212;5.952;2023-07-29T08:49:23;22.65;66.13
72591;SHT31;60625;51.212;5.952;2023-07-29T08:54:24;22.66;66.17
72591;SHT31;60625;51.212;5.952;2023-07-29T08:59:25;22.63;66.11
72591;SHT31;60625;51.212;5.952;2023-07-29T09:04:28;22.69;65.81
72591;SHT31;60625;51.212;5.952;2023-07-29T09:09:29;22.74;65.57
72591;SHT31;60625;51.212;5.952;2023-07-29T09:14:30;22.85;65.66
72591;SHT31;60625;51.212;5.952;2023-07-29T09:19:32;23.13;65.11
72591;SHT31;60625;51.212;5.952;2023-07-29T09:24:34;23.36;64.31
72591;SHT31;60625;51.212;5.952;2023-07-29T09:29:35;23.58;63.96
72591;SHT31;60625;51.212;5.952;2023-07-29T09:34:41;23.69;63.19
72591;SHT31;60625;51.212;5.952;2023-07-29T09:39:45;23.65;63.35
72591;SHT31;60625;51.212;5.952;2023-07-29T09:44:50;23.92;63.15
72591;SHT31;60625;51.212;5.952;2023-07-29T09:49:51;24.25;62.45
72591;SHT31;60625;51.212;5.952;2023-07-29T09:54:53;24.51;62.18
72591;SHT31;60625;51.212;5.952;2023-07-29T09:59:55;24.82;61.03
72591;SHT31;60625;51.212;5.952;2023-07-29T10:04:56;25.07;60.03
72591;SHT31;60625;51.212;5.952;2023-07-29T10:09:59;25.01;59.31
72591;SHT31;60625;51.212;5.952;2023-07-29T10:15:04;24.88;59.31
72591;SHT31;60625;51.212;5.952;2023-07-29T10:20:07;24.81;59.31
72591;SHT31;60625;51.212;5.952;2023-07-29T10:30:17;24.53;60.03
72591;SHT31;60625;51.212;5.952;2023-07-29T10:35:18;24.45;60.95
72591;SHT31;60625;51.212;5.952;2023-07-29T10:40:19;24.43;60.90
72591;SHT31;60625;51.212;5.952;2023-07-29T10:45:20;24.79;61.01
72591;SHT31;60625;51.212;5.952;2023-07-29T10:50:22;25.18;60.52
72591;SHT31;60625;51.212;5.952;2023-07-29T10:55:27;25.50;59.42
72591;SHT31;60625;51.212;5.952;2023-07-29T11:00:30;25.61;58.53
72591;SHT31;60625;51.212;5.952;2023-07-29T11:05:48;25.61;58.40
72591;SHT31;60625;51.212;5.952;2023-07-29T11:16:00;25.74;57.15
72591;SHT31;60625;51.212;5.952;2023-07-29T11:21:02;25.51;57.69
72591;SHT31;60625;51.212;5.952;2023-07-29T11:26:04;25.43;57.82
72591;SHT31;60625;51.212;5.952;2023-07-29T11:31:06;25.40;57.60
72591;SHT31;60625;51.212;5.952;2023-07-29T11:36:16;25.34;57.21
72591;SHT31;60625;51.212;5.952;2023-07-29T11:41:20;25.35;57.06
72591;SHT31;60625;51.212;5.952;2023-07-29T11:46:22;25.66;56.84
72591;SHT31;60625;51.212;5.952;2023-07-29T11:51:23;26.15;55.98
72591;SHT31;60625;51.212;5.952;2023-07-29T11:56:24;26.50;55.37
72591;SHT31;60625;51.212;5.952;2023-07-29T12:01:24;26.68;54.96
72591;SHT31;60625;51.212;5.952;2023-07-29T12:06:25;26.71;54.68
72591;SHT31;60625;51.212;5.952;2023-07-29T12:11:25;26.92;54.92
72591;SHT31;60625;51.212;5.952;2023-07-29T12:16:26;26.86;54.72
72591;SHT31;60625;51.212;5.952;2023-07-29T12:21:27;26.71;55.22
72591;SHT31;60625;51.212;5.952;2023-07-29T12:26:29;26.61;55.31
72591;SHT31;60625;51.212;5.952;2023-07-29T12:31:33;26.37;55.77
72591;SHT31;60625;51.212;5.952;2023-07-29T12:36:44;26.06;56.48
72591;SHT31;60625;51.212;5.952;2023-07-29T12:41:50;25.74;57.15
72591;SHT31;60625;51.212;5.952;2023-07-29T12:46:52;25.32;58.69
72591;SHT31;60625;51.212;5.952;2023-07-29T12:51:53;24.95;60.60
72591;SHT31;60625;51.212;5.952;2023-07-29T12:56:54;24.60;61.26
72591;SHT31;60625;51.212;5.952;2023-07-29T13:01:54;24.25;62.28
72591;SHT31;60625;51.212;5.952;2023-07-29T13:06:55;24.00;63.71
72591;SHT31;60625;51.212;5.952;2023-07-29T13:11:56;23.81;64.66
72591;SHT31;60625;51.212;5.952;2023-07-29T13:16:56;23.65;64.53
72591;SHT31;60625;51.212;5.952;2023-07-29T13:21:57;23.63;64.33
72591;SHT31;60625;51.212;5.952;2023-07-29T13:26:58;23.73;63.85
72591;SHT31;60625;51.212;5.952;2023-07-29T13:31:58;23.86;63.85
72591;SHT31;60625;51.212;5.952;2023-07-29T13:36:59;23.93;63.16
72591;SHT31;60625;51.212;5.952;2023-07-29T13:41:59;23.98;62.56
72591;SHT31;60625;51.212;5.952;2023-07-29T13:47:00;23.74;61.76
72591;SHT31;60625;51.212;5.952;2023-07-29T13:52:00;23.31;65.09
72591;SHT31;60625;51.212;5.952;2023-07-29T13:57:01;22.88;67.30
72591;SHT31;60625;51.212;5.952;2023-07-29T14:02:02;22.46;68.88
72591;SHT31;60625;51.212;5.952;2023-07-29T14:07:02;22.14;70.64
72591;SHT31;60625;51.212;5.952;2023-07-29T14:12:04;21.99;71.68
72591;SHT31;60625;51.212;5.952;2023-07-29T14:17:05;22.10;72.18
72591;SHT31;60625;51.212;5.952;2023-07-29T14:22:06;22.54;72.61
72591;SHT31;60625;51.212;5.952;2023-07-29T14:27:06;23.03;72.14
72591;SHT31;60625;51.212;5.952;2023-07-29T14:32:07;23.38;71.75
72591;SHT31;60625;51.212;5.952;2023-07-29T14:37:07;23.63;71.57
72591;SHT31;60625;51.212;5.952;2023-07-29T14:42:08;23.87;70.40
72591;SHT31;60625;51.212;5.952;2023-07-29T14:47:09;23.95;69.23
72591;SHT31;60625;51.212;5.952;2023-07-29T14:52:09;23.91;68.58
72591;SHT31;60625;51.212;5.952;2023-07-29T14:57:10;24.00;68.69
72591;SHT31;60625;51.212;5.952;2023-07-29T15:02:11;24.18;68.31
72591;SHT31;60625;51.212;5.952;2023-07-29T15:07:11;24.30;68.00
72591;SHT31;60625;51.212;5.952;2023-07-29T15:12:12;24.48;67.50
72591;SHT31;60625;51.212;5.952;2023-07-29T15:17:12;24.51;66.40
72591;SHT31;60625;51.212;5.952;2023-07-29T15:22:13;24.56;66.69
72591;SHT31;60625;51.212;5.952;2023-07-29T15:27:13;24.69;66.74
72591;SHT31;60625;51.212;5.952;2023-07-29T15:32:14;24.83;66.67
72591;SHT31;60625;51.212;5.952;2023-07-29T15:37:14;24.94;66.40
72591;SHT31;60625;51.212;5.952;2023-07-29T15:42:15;24.81;66.52
72591;SHT31;60625;51.212;5.952;2023-07-29T15:47:15;24.65;66.63
72591;SHT31;60625;51.212;5.952;2023-07-29T15:52:18;24.57;66.78
72591;SHT31;60625;51.212;5.952;2023-07-29T15:57:19;24.46;66.93
72591;SHT31;60625;51.212;5.952;2023-07-29T16:02:20;24.46;67.32
72591;SHT31;60625;51.212;5.952;2023-07-29T16:07:20;24.43;67.43
72591;SHT31;60625;51.212;5.952;2023-07-29T16:12:20;24.31;67.50
72591;SHT31;60625;51.212;5.952;2023-07-29T16:17:21;24.17;68.53
72591;SHT31;60625;51.212;5.952;2023-07-29T16:22:22;24.04;69.14
72591;SHT31;60625;51.212;5.952;2023-07-29T16:27:23;23.95;69.35
72591;SHT31;60625;51.212;5.952;2023-07-29T16:32:23;23.83;70.04
72591;SHT31;60625;51.212;5.952;2023-07-29T16:37:24;23.62;69.89
72591;SHT31;60625;51.212;5.952;2023-07-29T16:42:24;23.39;69.19
72591;SHT31;60625;51.212;5.952;2023-07-29T16:47:24;23.26;69.63
72591;SHT31;60625;51.212;5.952;2023-07-29T16:52:26;23.14;70.31
72591;SHT31;60625;51.212;5.952;2023-07-29T16:57:27;22.98;70.86
72591;SHT31;60625;51.212;5.952;2023-07-29T17:02:28;22.79;70.70
72591;SHT31;60625;51.212;5.952;2023-07-29T17:07:29;22.68;70.83
72591;SHT31;60625;51.212;5.952;2023-07-29T17:12:30;22.67;71.25
72591;SHT31;60625;51.212;5.952;2023-07-29T17:17:32;22.51;72.67
72591;SHT31;60625;51.212;5.952;2023-07-29T17:22:32;22.28;73.74
72591;SHT31;60625;51.212;5.952;2023-07-29T17:27:34;22.09;74.11
72591;SHT31;60625;51.212;5.952;2023-07-29T17:32:34;21.90;74.54
72591;SHT31;60625;51.212;5.952;2023-07-29T17:37:35;21.69;75.00
72591;SHT31;60625;51.212;5.952;2023-07-29T17:42:36;21.60;75.71
72591;SHT31;60625;51.212;5.952;2023-07-29T17:47:36;21.63;75.97
72591;SHT31;60625;51.212;5.952;2023-07-29T17:52:37;21.74;76.08
72591;SHT31;60625;51.212;5.952;2023-07-29T17:57:37;21.86;76.03
72591;SHT31;60625;51.212;5.952;2023-07-29T18:02:38;21.96;75.89
72591;SHT31;60625;51.212;5.952;2023-07-29T18:07:38;22.03;75.88
72591;SHT31;60625;51.212;5.952;2023-07-29T18:12:39;22.02;75.74
72591;SHT31;60625;51.212;5.952;2023-07-29T18:17:42;22.00;75.71
72591;SHT31;60625;51.212;5.952;2023-07-29T18:22:42;21.95;75.86
72591;SHT31;60625;51.212;5.952;2023-07-29T18:27:43;21.88;76.19
72591;SHT31;60625;51.212;5.952;2023-07-29T18:32:43;21.79;76.44
72591;SHT31;60625;51.212;5.952;2023-07-29T18:37:45;21.71;76.65
72591;SHT31;60625;51.212;5.952;2023-07-29T18:42:47;21.70;77.00
72591;SHT31;60625;51.212;5.952;2023-07-29T18:47:47;21.71;77.30
72591;SHT31;60625;51.212;5.952;2023-07-29T18:52:51;21.73;77.38
72591;SHT31;60625;51.212;5.952;2023-07-29T18:57:54;21.70;77.60
72591;SHT31;60625;51.212;5.952;2023-07-29T19:02:56;21.65;77.63
72591;SHT31;60625;51.212;5.952;2023-07-29T19:07:57;21.54;77.87
72591;SHT31;60625;51.212;5.952;2023-07-29T19:12:57;21.42;78.15
72591;SHT31;60625;51.212;5.952;2023-07-29T19:17:58;21.34;78.26
72591;SHT31;60625;51.212;5.952;2023-07-29T19:22:59;21.26;78.36
72591;SHT31;60625;51.212;5.952;2023-07-29T19:28:00;21.19;78.44
72591;SHT31;60625;51.212;5.952;2023-07-29T19:33:00;21.13;78.64
72591;SHT31;60625;51.212;5.952;2023-07-29T19:38:01;21.08;78.92
72591;SHT31;60625;51.212;5.952;2023-07-29T19:43:01;21.02;79.06
72591;SHT31;60625;51.212;5.952;2023-07-29T19:48:01;20.95;79.18
72591;SHT31;60625;51.212;5.952;2023-07-29T19:53:06;20.89;79.11
72591;SHT31;60625;51.212;5.952;2023-07-29T19:58:07;20.82;78.86
72591;SHT31;60625;51.212;5.952;2023-07-29T20:03:07;20.71;78.40
72591;SHT31;60625;51.212;5.952;2023-07-29T20:08:08;20.64;77.99
72591;SHT31;60625;51.212;5.952;2023-07-29T20:13:08;20.56;77.87
72591;SHT31;60625;51.212;5.952;2023-07-29T20:18:09;20.47;78.00
72591;SHT31;60625;51.212;5.952;2023-07-29T20:23:09;20.39;77.69
72591;SHT31;60625;51.212;5.952;2023-07-29T20:28:10;20.28;77.21
72591;SHT31;60625;51.212;5.952;2023-07-29T20:33:13;20.18;76.56
72591;SHT31;60625;51.212;5.952;2023-07-29T20:38:13;20.07;76.13
72591;SHT31;60625;51.212;5.952;2023-07-29T20:43:14;19.94;75.67
72591;SHT31;60625;51.212;5.952;2023-07-29T20:48:14;19.83;75.39
72591;SHT31;60625;51.212;5.952;2023-07-29T20:53:15;19.71;74.86
72591;SHT31;60625;51.212;5.952;2023-07-29T20:58:18;19.60;74.41
72591;SHT31;60625;51.212;5.952;2023-07-29T21:03:18;19.48;73.72
72591;SHT31;60625;51.212;5.952;2023-07-29T21:08:19;19.34;73.63
72591;SHT31;60625;51.212;5.952;2023-07-29T21:13:20;19.22;73.86
72591;SHT31;60625;51.212;5.952;2023-07-29T21:18:23;19.11;73.56
72591;SHT31;60625;51.212;5.952;2023-07-29T21:23:24;19.02;73.61
72591;SHT31;60625;51.212;5.952;2023-07-29T21:28:25;18.96;73.97
72591;SHT31;60625;51.212;5.952;2023-07-29T21:33:26;18.90;74.36
72591;SHT31;60625;51.212;5.952;2023-07-29T21:38:27;18.84;74.83
72591;SHT31;60625;51.212;5.952;2023-07-29T21:43:28;18.75;75.13
72591;SHT31;60625;51.212;5.952;2023-07-29T21:48:28;18.66;75.44
72591;SHT31;60625;51.212;5.952;2023-07-29T21:53:29;18.59;75.63
72591;SHT31;60625;51.212;5.952;2023-07-29T21:58:30;18.52;75.83
72591;SHT31;60625;51.212;5.952;2023-07-29T22:03:30;18.46;76.07
72591;SHT31;60625;51.212;5.952;2023-07-29T22:08:31;18.41;76.22
72591;SHT31;60625;51.212;5.952;2023-07-29T22:13:32;18.34;76.25
72591;SHT31;60625;51.212;5.952;2023-07-29T22:18:33;18.27;76.26
72591;SHT31;60625;51.212;5.952;2023-07-29T22:23:34;18.20;75.63
72591;SHT31;60625;51.212;5.952;2023-07-29T22:28:34;18.13;75.32
72591;SHT31;60625;51.212;5.952;2023-07-29T22:33:38;18.09;74.94
72591;SHT31;60625;51.212;5.952;2023-07-29T22:38:38;18.03;74.92
72591;SHT31;60625;51.212;5.952;2023-07-29T22:43:39;17.98;74.89
72591;SHT31;60625;51.212;5.952;2023-07-29T22:48:39;17.91;74.91
72591;SHT31;60625;51.212;5.952;2023-07-29T22:53:40;17.85;75.02
72591;SHT31;60625;51.212;5.952;2023-07-29T22:58:40;17.81;75.14
72591;SHT31;60625;51.212;5.952;2023-07-29T23:03:41;17.76;75.41
72591;SHT31;60625;51.212;5.952;2023-07-29T23:08:42;17.70;75.58
72591;SHT31;60625;51.212;5.952;2023-07-29T23:13:42;17.65;75.50
72591;SHT31;60625;51.212;5.952;2023-07-29T23:18:43;17.60;75.51
72591;SHT31;60625;51.212;5.952;2023-07-29T23:23:43;17.56;75.33
72591;SHT31;60625;51.212;5.952;2023-07-29T23:28:45;17.52;75.34
72591;SHT31;60625;51.212;5.952;2023-07-29T23:33:45;17.46;75.47
72591;SHT31;60625;51.212;5.952;2023-07-29T23:38:45;17.42;75.64
72591;SHT31;60625;51.212;5.952;2023-07-29T23:43:46;17.39;75.80
72591;SHT31;60625;51.212;5.952;2023-07-29T23:48:46;17.32;75.92
72591;SHT31;60625;51.212;5.952;2023-07-29T23:53:47;17.25;76.04
72591;SHT31;60625;51.212;5.952;2023-07-29T23:58:48;17.19;76.11
